Gennep, Netherlands
Current Conditions -  °F | °C
As of 7:20 AM on Sunday 26 Oct 2014 (Local Time) from EDLV Reporting Station
Broken Clouds Broken Clouds  
Wind Chill: 52°   Ceiling: 4100
Heat Index: 52°   Visibility: 6mi
Dew Point: 52°   Wind: 6mph
Humidity: 100%   Direction: 190°S
Pressure: 30.24"   Gusts: NA
Location:  51.7°N, 5.97°E
Report Text: EDLV 260520Z 19005KT 9000 BKN041 11/11 Q1024
Loading
Personal Weather Stations






























Interactive Weather Map
Tropical Storm Tracking
New forecast layout! Learn more

10-Day Weather Forecast

Advertisements
Track Severe Weather on mobile